LiveATC.Net - Listen to live air traffic control over the Internet!
Airport/ARTCC Code
Frequency Search
(e.g., 124.400, 128.75)
Site-wide search
 


Browse Feeds
Top 50 Feeds
Coverage Map
Bad Weather Areas

LiveATC FAQ
Offer LiveATC feed
Contact LiveATC.net
Press Inquiries

LiveATC on iPhone
LiveATC on Android

Windows Phone
Windows 8/10

LiveATC Mobile
(Mobile browser)

ATC Audio Archives
Interesting Recordings

LiveATC Forums

Home Page
About LiveATC.net
Make a Donation
Terms of Use
Privacy Policy

Canadian Air Freqs

AIRMETs/SIGMETs

FAA Airport Status
Nat'l Airspace Status
Arrival Demand Charts


Server Software By:
Icecast.org
Liquidsoap

Select an area of interest:
U.S. Feeds: Class B Airports | Class C Airports | Class D/Other Airports | ARTCC (Centers)
International Feeds: Canada | Europe | Oceania | Asia | South America | North/Central America | Africa
Misc Feeds: HF Feeds
Search by ICAO/IATA airport code:   (e.g., kbos, kjfk, lax, eham, etc.)


Currently Available Live Feeds: 2592
Status Updated: Thu Apr 02 2020 04:34:04 UTC


NOTICE

Unauthorized use prohibited. See LiveATC.net Terms of Service

North and Central America Airport Feeds

 

MDPP App/Dep (Archives)
Puerto Plata, Dominican Republic

Feed Status: UP
Listen in your browser - HTML5 player(in browser, HTML5)
Click here to listen with your own player(launches your MP3 player)

MDPP 020300Z 00000KT 9999 FEW018 24/23 Q1013

MDPP Flight Activity (Flightaware)

Listeners: 0 out of 746 total

Puerto Plata Approach/Departure: 119.000

MDPP Ground/Center (Archives)
Puerto Plata, Dominican Republic

Feed Status: UP
Listen in your browser - HTML5 player(in browser, HTML5)
Click here to listen with your own player(launches your MP3 player)

MDPP 020300Z 00000KT 9999 FEW018 24/23 Q1013

MDPP Flight Activity (Flightaware)

Listeners: 0 out of 746 total

Puerto Plata Ground: 121.900
Puerto Plata Tower: 118.000
Santo Domingo Center: 124.300

MDPP Ground/Tower/Center (Archives)
Puerto Plata, Dominican Republic

Feed Status: UP
Listen in your browser - HTML5 player(in browser, HTML5)
Click here to listen with your own player(launches your MP3 player)

MDPP 020300Z 00000KT 9999 FEW018 24/23 Q1013

MDPP Flight Activity (Flightaware)

Listeners: 0 out of 746 total

Puerto Plata Ground: 121.900
Puerto Plata Tower: 118.000
Santo Domingo Center: 124.300

MDPP Tower (Archives)
Puerto Plata, Dominican Republic

Feed Status: UP
Listen in your browser - HTML5 player(in browser, HTML5)
Click here to listen with your own player(launches your MP3 player)

MDPP 020300Z 00000KT 9999 FEW018 24/23 Q1013

MDPP Flight Activity (Flightaware)

Listeners: 0 out of 746 total

Puerto Plata Tower: 118.000

MMAN Tower
Monterrey, Mexico

Feed Status: DOWN
Offline since: 2020-02-14 03:08:22 UTC

MMAN 020340Z 11009KT 8SM SCT030 23/18 A2992 RMK 8/500 HZY

Monterrey Tower: 118.600

MMCU Twr/App (Archives)
Chihuahua, Mexico

Feed Status: UP
Listen in your browser - HTML5 player(in browser, HTML5)
Click here to listen with your own player(launches your MP3 player)

MMCU 020343Z 25004KT 10SM BKN080 OVC200 22/01 A2997 RMK 8/072

MMCU Flight Activity (Flightaware)

Listeners: 1 out of 746 total

Chihuahua Approach: 121.000
Chihuahua Tower: 118.400

MMGL Twr/App (Archives)
Guadalajara, Mexico

Feed Status: UP
Listen in your browser - HTML5 player(in browser, HTML5)
Click here to listen with your own player(launches your MP3 player)

MMGL 020340Z 28009KT 8SM SKC 22/09 A3013

MMGL Flight Activity (Flightaware)

Listeners: 2 out of 746 total

Guadalajara Approach: 120.800
Guadalajara Tower: 118.100

MMHO App/Dep
Hermosillo, Mexico

Feed Status: DOWN
Offline since: 2019-11-27 01:26:40 UTC

MMHO 020340Z 22003KT 10SM SCT200 22/06 A2987 RMK 8/008 HZY

Hermosillo Approach/Departure: 121.400

MMHO Tower
Hermosillo, Mexico

Feed Status: DOWN
Offline since: 2019-11-27 01:26:40 UTC

MMHO 020340Z 22003KT 10SM SCT200 22/06 A2987 RMK 8/008 HZY

Hermosillo Tower: 118.700

MMLP Twr/App/Center (Archives)
La Paz, Mexico

Feed Status: UP
Listen in your browser - HTML5 player(in browser, HTML5)
Click here to listen with your own player(launches your MP3 player)

MMLP 020344Z 17007KT 10SM BKN220 21/04 A2994 RMK 8/008 ISOL AC

MMLP Flight Activity (Flightaware)

Listeners: 2 out of 746 total

La Paz Approach: 120.600
La Paz Tower: 118.100
Mazatlan Center: 128.000
Mazatlan Center: 124.400
Mazatlan Center: 128.300
Mazatlan Center: 124.200
Mazatlan Center: 126.300
Mazatlan Center: 126.500
San Jose Approach: 120.900

MMMD Tower/Approach (Archives)
Merida, Mexico

Feed Status: UP
Listen in your browser - HTML5 player(in browser, HTML5)
Click here to listen with your own player(launches your MP3 player)

MMMD 020348Z 06006KT 7SM FEW015 26/22 A2993 RMK 8/500 CI

MMMD Flight Activity (Flightaware)

Listeners: 0 out of 746 total

Merida Approach: 121.200
Merida Tower: 118.300

MMMM Tower (Archives)
Morelia, Mexico

Feed Status: UP
Listen in your browser - HTML5 player(in browser, HTML5)
Click here to listen with your own player(launches your MP3 player)

MMMM 020346Z 21004KT 8SM SCT030 SCT090 BKN200 21/10 A3017 RMK 8/463 HZY

MMMM Flight Activity (Flightaware)

Listeners: 0 out of 746 total

Morelia Tower: 118.500

MMMX Approach (Archives)
Mexico City, Mexico

Feed Status: UP
Listen in your browser - HTML5 player(in browser, HTML5)
Click here to listen with your own player(launches your MP3 player)

MMMX 020346Z 35005KT 7SM SCT020 OVC080 21/07 A3027 NOSIG RMK 8/46/ HZY BINOVC DSNT OCNL LTGCCCG W

MMMX Flight Activity (Flightaware)

Listeners: 0 out of 746 total

Mexico City Approach: 121.200

MMMX Twr/App (Archives)
Mexico City, Mexico

Feed Status: UP
Listen in your browser - HTML5 player(in browser, HTML5)
Click here to listen with your own player(launches your MP3 player)

MMMX 020346Z 35005KT 7SM SCT020 OVC080 21/07 A3027 NOSIG RMK 8/46/ HZY BINOVC DSNT OCNL LTGCCCG W

MMMX Flight Activity (Flightaware)

Listeners: 6 out of 746 total

Mexico City Approach: 121.200
Mexico City Departure (East): 120.500
Mexico City Departure (West): 129.100
Mexico City Final Approach: 119.750
Mexico City Helicopters: 118.150
Mexico City Terminal: 129.600
Mexico City Tower: 118.550

MMMY Tower/Approach (Archives)
Monterrey, Mexico

Feed Status: UP
Listen in your browser - HTML5 player(in browser, HTML5)
Click here to listen with your own player(launches your MP3 player)

MMMY 020342Z 11009KT 8SM BKN070 24/19 A2987 RMK 8/070

MMMY Flight Activity (Flightaware)

Listeners: 0 out of 746 total

Monterrey Approach/Departure: 119.750
Monterrey Tower: 118.100

MMQT Tower/App
Queretaro, Mexico

Feed Status: DOWN
Offline since: 2020-01-27 20:28:06 UTC

MMQT 020342Z 10010KT 7SM BKN025CB BKN110 BKN250 16/13 A3026 RMK 60055 8/363 TSRA E27

Queretaro Approach: 127.200
Queretaro Tower: 118.950

MMSP Gnd/Twr/App/Center (Archives)
San Luis Potosi, Mexico

Feed Status: UP
Listen in your browser - HTML5 player(in browser, HTML5)
Click here to listen with your own player(launches your MP3 player)

MMSP 020345Z 00000KT 8SM SKC 18/12 A3013 RMK SC AC HZY

MMSP Flight Activity (Flightaware)

Listeners: 0 out of 746 total

AMX Ground Ops: 131.000
Mexico Center (North, Sector 6): 126.000
Mexico Center (Northwest, Sector 7): 123.900
Mexico Center (West, Sector 5): 125.100
Potosi Approach: 127.500
Potosi Tower: 118.900
TAO Ground Ops: 133.600

MMTC Twr/App/Center (Archives)
Torreon, Mexico

Feed Status: UP
Listen in your browser - HTML5 player(in browser, HTML5)
Click here to listen with your own player(launches your MP3 player)

MMTC 020247Z 28005KT 8SM SCT040 30/05 A2986 RMK SLP005 52027 990 8/500 ISOL CI

MMTC Flight Activity (Flightaware)

Listeners: 0 out of 746 total

Mazatlan Center: 124.200
Mazatlan Center: 124.400
Mazatlan Center: 128.000
Mexico Center: 123.900
Monterrey Center: 125.600
Monterrey Center: 125.425
Monterrey Center: 127.400
Torreon Approach: 119.500
Torreon Tower: 118.500

MMTJ Approach (Archives)
Tijuana, Mexico

Feed Status: UP
Listen in your browser - HTML5 player(in browser, HTML5)
Click here to listen with your own player(launches your MP3 player)

MMTJ 020343Z 19007KT 7SM SKC 13/11 A2993 RMK HZY ST 3RD QUAD

MMTJ Flight Activity (Flightaware)

Listeners: 1 out of 746 total

Tijuana Approach: 120.300

MMTJ Twr/Ramp (Archives)
Tijuana, Mexico

Feed Status: UP
Listen in your browser - HTML5 player(in browser, HTML5)
Click here to listen with your own player(launches your MP3 player)

MMTJ 020343Z 19007KT 7SM SKC 13/11 A2993 RMK HZY ST 3RD QUAD

MMTJ Flight Activity (Flightaware)

Listeners: 2 out of 746 total

Tijuana Ramp: 126.100
Tijuana Tower: 118.100

MUFH Havana FIR (App/Center) (Archives)
Havana, Cuba

Feed Status: UP
Listen in your browser - HTML5 player(in browser, HTML5)
Click here to listen with your own player(launches your MP3 player)

MUFH Flight Activity (Flightaware)

Listeners: 0 out of 746 total

Hava Approach: 120.300
Havana Center: 120.250
Havana Center: 123.700
Havana Center: 124.550
Havana Center: 133.700
Havana Center: 135.100

TBPB Gnd/Twr/Radar/Center
Bridgetown, Barbados

Feed Status: DOWN
Offline since: 2020-04-01 21:59:40 UTC

TBPB 020400Z 10014KT 9999 SCT020 26/20 Q1013 NOSIG

Adams Approach/Departure: 129.350
Adams Approach/Departure: 128.850
Adams Ground: 121.900
Adams Tower: 118.700
Piarco Center: 123.700

TXKF Tower/Ground (Archives)
Hamilton, Bermuda

Feed Status: UP
Listen in your browser - HTML5 player(in browser, HTML5)
Click here to listen with your own player(launches your MP3 player)

TXKF 020355Z 27028KT 9999 VCSH SCT027 SCT045 BKN080 19/15 Q0999

TXKF Flight Activity (Flightaware)

Listeners: 0 out of 746 total

Bermuda CTAF: 122.800
Bermuda Ground/Clearance: 124.500
Bermuda Tower: 118.100

ZNY Bermuda Sector (Archives)
Hamilton, Bermuda

Feed Status: UP
Listen in your browser - HTML5 player(in browser, HTML5)
Click here to listen with your own player(launches your MP3 player)

TXKF 020355Z 27028KT 9999 VCSH SCT027 SCT045 BKN080 19/15 Q0999

TXKF Flight Activity (Flightaware)

Listeners: 0 out of 746 total

New York Approach (Bermuda Sector) : 119.100
New York Center (Bermuda Sector): 128.500

MHLC Gnd/Twr/Center (Archives)
La Ceiba, Honduras

Feed Status: UP
Listen in your browser - HTML5 player(in browser, HTML5)
Click here to listen with your own player(launches your MP3 player)

MHLC 170400Z 11003KT 9999 FEW024 23/22 Q1017 A3003 NOSIG

MHLC Flight Activity (Flightaware)

Listeners: 0 out of 746 total

CENAMER: 123.900
CENAMER: 124.300
Goloson Ground: 121.900
Goloson Tower: 118.500
La Ceiba Radio: 128.900

MHRO Gnd/Twr/App/Center (Archives)
Roatan, Honduras

Feed Status: UP
Listen in your browser - HTML5 player(in browser, HTML5)
Click here to listen with your own player(launches your MP3 player)

MHRO 012000Z 27010KT 9999 SCT020 29/25 Q1010 A2983

MHRO Flight Activity (Flightaware)

Listeners: 0 out of 746 total

CENAMER (Center): 124.300
La Ceiba Radio: 128.900
Roatan Ground: 121.600
Roatan Tower: 118.100

MHTG ATIS (Archives)
Tegucigalpa, Honduras

Feed Status: UP
Listen in your browser - HTML5 player(in browser, HTML5)
Click here to listen with your own player(launches your MP3 player)

MHTG 012200Z 36007KT 9999 FEW030CB SCT032TCU 31/11 Q1013 A2991

MHTG Flight Activity (Flightaware)

Listeners: 0 out of 746 total

Toncontin ATIS: 127.750

MHTG Gnd/Twr/App/Ctr/Ops (Archives)
Tegucigalpa, Honduras

Feed Status: UP
Listen in your browser - HTML5 player(in browser, HTML5)
Click here to listen with your own player(launches your MP3 player)

MHTG 012200Z 36007KT 9999 FEW030CB SCT032TCU 31/11 Q1013 A2991

MHTG Flight Activity (Flightaware)

Listeners: 0 out of 746 total

American Airlines Ops: 130.700
ARINC ACARS: 131.550
Cenamer Center: 123.900
Cenamer Center: 124.300
Cenamer Center: 124.100
CMP Ops: 129.925
Continental Airlines Ops: 129.925
FAH Ground: 122.900
Taca Ops: 131.300
Taca Ops Sal: 130.300
Tecnologias Unidas: 133.000
Tegucigalpa RDO: 126.700
Toncontin Approach: 119.100
Toncontin Ground: 121.900
Toncontin Tower: 118.700

MROC Del/Gnd/Twr (Archives)
San Jose, Costa Rica

Feed Status: UP
Listen in your browser - HTML5 player(in browser, HTML5)
Click here to listen with your own player(launches your MP3 player)

MROC 020400Z 07004KT CAVOK 21/19 A3003 NOSIG

MROC Flight Activity (Flightaware)

Listeners: 0 out of 746 total

Coco Clearance Delivery/Ground: 121.900
Coco Tower: 118.600

MROC Del/Gnd/Twr/App/Center/Misc (Archives)
San Jose, Costa Rica

Feed Status: UP
Listen in your browser - HTML5 player(in browser, HTML5)
Click here to listen with your own player(launches your MP3 player)

MROC 020400Z 07004KT CAVOK 21/19 A3003 NOSIG

MROC Flight Activity (Flightaware)

Listeners: 8 out of 746 total

Central American Center (CENAMER Control): 124.100
Coco Center (Control over CR Airspace): 119.600
Coco Clearance Delivery: 121.300
Coco Ground: 121.900
Coco Terminal Control: 120.500
Coco Tower: 118.600
Coco UNICOM: 126.800
SYQ Ground: 121.700
SYQ Tower: 118.300

MSLP Gnd/Twr/App (Archives)
San Salvador, El Salvador

Feed Status: UP
Listen in your browser - HTML5 player(in browser, HTML5)
Click here to listen with your own player(launches your MP3 player)

MSLP 020350Z 22003KT 190V260 9999 SCT023 FEW040CB 28/25 Q1011 A2987 NOSIG RMK CB W

MSLP Flight Activity (Flightaware)

Listeners: 0 out of 746 total

Comalapa Ground: 121.700
Comalapa Tower: 118.000
Compalapa Approach: 119.900

MSLP Gnd/Twr/App/Center (Archives)
San Salvador, El Salvador

Feed Status: UP
Listen in your browser - HTML5 player(in browser, HTML5)
Click here to listen with your own player(launches your MP3 player)

MSLP 020350Z 22003KT 190V260 9999 SCT023 FEW040CB 28/25 Q1011 A2987 NOSIG RMK CB W

MSLP Flight Activity (Flightaware)

Listeners: 0 out of 746 total

Avianca Ops: 123.500
CCA: 119.300
CENAMER: 124.100
Comalapa Authorizations: 121.250
Comalapa Departure: 123.900
Comalapa Ground: 121.700
Comalapa Tower: 118.000
Compalapa Approach: 119.900
Ilopango Tower: 118.300
TACA Ops: 130.500

MSSS Tower
San Salvador, El Salvador

Feed Status: DOWN
Offline since: 2020-04-01 03:12:05 UTC

MSSS 012150Z 20012KT 9999 FEW033 29/20 Q1011 A2986 RMK HZ

Ilopango Tower: 118.300